createdAt,value
2022-09-07T00:00:00.378Z,16.78
2022-09-07T00:01:00.267Z,16.78
2022-09-07T00:02:00.334Z,16.70
2022-09-07T00:03:00.403Z,16.70
2022-09-07T00:04:00.404Z,16.70
2022-09-07T00:05:00.288Z,16.70
2022-09-07T00:06:04.024Z,16.70
2022-09-07T00:07:00.413Z,16.72
2022-09-07T00:08:00.322Z,16.72
2022-09-07T00:09:00.995Z,16.72
2022-09-07T00:10:00.259Z,16.72
2022-09-07T00:11:01.753Z,16.72
2022-09-07T00:12:00.389Z,16.68
2022-09-07T00:13:00.340Z,16.68
2022-09-07T00:14:00.258Z,16.68
2022-09-07T00:15:00.302Z,16.68
2022-09-07T00:16:05.139Z,16.68
2022-09-07T00:17:00.260Z,16.64
2022-09-07T00:18:00.269Z,16.64
2022-09-07T00:19:01.296Z,16.64
2022-09-07T00:20:00.680Z,16.64
2022-09-07T00:21:01.577Z,16.64
2022-09-07T00:22:00.266Z,16.63
2022-09-07T00:23:00.307Z,16.63
2022-09-07T00:24:00.264Z,16.63
2022-09-07T00:25:00.345Z,16.63
2022-09-07T00:26:01.601Z,16.63
2022-09-07T00:27:00.285Z,16.65
2022-09-07T00:28:00.339Z,16.65
2022-09-07T00:29:01.542Z,16.65
2022-09-07T00:30:00.263Z,16.65
2022-09-07T00:31:00.669Z,16.65
2022-09-07T00:32:00.318Z,16.62
2022-09-07T00:33:00.298Z,16.62
2022-09-07T00:34:00.952Z,16.62
2022-09-07T00:35:00.261Z,16.62
2022-09-07T00:36:00.352Z,16.62
2022-09-07T00:37:00.304Z,16.64
2022-09-07T00:38:00.269Z,16.64
2022-09-07T00:39:00.279Z,16.64
2022-09-07T00:40:00.520Z,16.64
2022-09-07T00:41:00.368Z,16.64
2022-09-07T00:42:00.448Z,16.63
2022-09-07T00:43:00.325Z,16.63
2022-09-07T00:44:10.184Z,16.63
2022-09-07T00:45:09.032Z,16.63
2022-09-07T00:46:00.603Z,16.63
2022-09-07T00:47:00.481Z,16.58
2022-09-07T00:48:07.348Z,16.58
2022-09-07T00:49:05.602Z,16.58
2022-09-07T00:50:03.976Z,16.58
2022-09-07T00:51:04.022Z,16.58
2022-09-07T00:52:02.573Z,16.60
2022-09-07T00:53:04.001Z,16.60
2022-09-07T00:54:04.739Z,16.60
2022-09-07T00:55:02.499Z,16.60
2022-09-07T00:56:00.965Z,16.60
2022-09-07T00:57:00.361Z,16.53
2022-09-07T00:58:01.023Z,16.53
2022-09-07T00:59:00.705Z,16.53
2022-09-07T01:00:00.381Z,16.53
2022-09-07T01:01:00.449Z,16.53
2022-09-07T01:02:00.408Z,16.49
2022-09-07T01:03:01.059Z,16.49
2022-09-07T01:04:01.026Z,16.49
2022-09-07T01:05:08.825Z,16.49
2022-09-07T01:06:05.972Z,16.49
2022-09-07T01:07:01.998Z,16.50
2022-09-07T01:08:00.329Z,16.50
2022-09-07T01:09:02.756Z,16.50
2022-09-07T01:10:00.617Z,16.50
2022-09-07T01:11:00.378Z,16.50
2022-09-07T01:12:00.904Z,16.49
2022-09-07T01:13:00.338Z,16.49
2022-09-07T01:14:01.425Z,16.49
2022-09-07T01:15:00.521Z,16.49
2022-09-07T01:16:01.346Z,16.49
2022-09-07T01:17:10.182Z,16.47
2022-09-07T01:18:00.252Z,16.47
2022-09-07T01:19:07.654Z,16.47
2022-09-07T01:20:00.260Z,16.47
2022-09-07T01:21:00.257Z,16.47
2022-09-07T01:22:10.176Z,16.47
2022-09-07T01:23:07.792Z,16.47
2022-09-07T01:24:10.178Z,16.47
2022-09-07T01:25:10.192Z,16.47
2022-09-07T01:26:10.201Z,16.47
2022-09-07T01:27:10.187Z,16.45
2022-09-07T01:28:00.253Z,16.45
2022-09-07T01:29:07.194Z,16.45
2022-09-07T01:30:04.704Z,16.45
2022-09-07T01:31:10.224Z,16.45
2022-09-07T01:32:00.266Z,16.45
2022-09-07T01:33:09.381Z,16.45
2022-09-07T01:34:09.083Z,16.45
2022-09-07T01:35:01.294Z,16.45
2022-09-07T01:36:00.295Z,16.45
2022-09-07T01:37:01.302Z,16.42
2022-09-07T01:38:10.177Z,16.42
2022-09-07T01:39:02.708Z,16.42
2022-09-07T01:40:10.332Z,16.42
2022-09-07T01:41:10.195Z,16.42
2022-09-07T01:42:04.563Z,16.43
2022-09-07T01:43:03.366Z,16.43
2022-09-07T01:44:04.545Z,16.43
2022-09-07T01:45:01.185Z,16.43
2022-09-07T01:46:02.323Z,16.43
2022-09-07T01:47:01.471Z,16.43
2022-09-07T01:48:03.448Z,16.43
2022-09-07T01:49:03.681Z,16.43
2022-09-07T01:50:10.181Z,16.43
2022-09-07T01:51:01.924Z,16.43
2022-09-07T01:52:02.623Z,16.44
2022-09-07T01:53:03.469Z,16.44
2022-09-07T01:54:05.113Z,16.44
2022-09-07T01:55:06.337Z,16.44
2022-09-07T01:56:05.885Z,16.44
2022-09-07T01:57:02.068Z,16.46
2022-09-07T01:58:02.925Z,16.46
2022-09-07T01:59:03.394Z,16.46
2022-09-07T02:00:09.317Z,16.46
2022-09-07T02:01:04.297Z,16.46
2022-09-07T02:02:04.651Z,16.44
2022-09-07T02:03:05.626Z,16.44
2022-09-07T02:04:04.987Z,16.44
2022-09-07T02:05:00.261Z,16.44
2022-09-07T02:06:07.782Z,16.44
2022-09-07T02:07:07.541Z,16.46
2022-09-07T02:08:10.184Z,16.46
2022-09-07T02:09:10.200Z,16.46
2022-09-07T02:10:01.251Z,16.46
2022-09-07T02:11:06.860Z,16.46
2022-09-07T02:12:03.000Z,16.48
2022-09-07T02:13:05.628Z,16.48
2022-09-07T02:14:04.274Z,16.48
2022-09-07T02:15:02.531Z,16.48
2022-09-07T02:16:01.315Z,16.48
2022-09-07T02:17:03.803Z,16.50
2022-09-07T02:18:03.369Z,16.50
2022-09-07T02:19:03.192Z,16.50
2022-09-07T02:20:05.301Z,16.50
2022-09-07T02:21:00.647Z,16.50
2022-09-07T02:22:03.124Z,16.53
2022-09-07T02:23:03.161Z,16.53
2022-09-07T02:24:04.041Z,16.53
2022-09-07T02:25:02.271Z,16.53
2022-09-07T02:26:02.526Z,16.53
2022-09-07T02:27:03.516Z,16.53
2022-09-07T02:28:06.297Z,16.53
2022-09-07T02:29:00.317Z,16.53
2022-09-07T02:30:00.477Z,16.53
2022-09-07T02:31:00.734Z,16.53
2022-09-07T02:32:00.313Z,16.54
2022-09-07T02:33:00.380Z,16.54
2022-09-07T02:34:00.356Z,16.54
2022-09-07T02:35:00.452Z,16.54
2022-09-07T02:36:01.376Z,16.54
2022-09-07T02:37:01.665Z,16.56
2022-09-07T02:38:01.954Z,16.56
2022-09-07T02:39:00.271Z,16.56
2022-09-07T02:40:00.368Z,16.56
2022-09-07T02:41:01.484Z,16.56
2022-09-07T02:42:00.369Z,16.54
2022-09-07T02:43:02.788Z,16.54
2022-09-07T02:44:02.678Z,16.54
2022-09-07T02:45:02.730Z,16.54
2022-09-07T02:46:00.321Z,16.54
2022-09-07T02:47:08.984Z,16.55
2022-09-07T02:48:08.272Z,16.55
2022-09-07T02:49:00.248Z,16.55
2022-09-07T02:50:10.187Z,16.55
2022-09-07T02:51:00.253Z,16.55
2022-09-07T02:52:10.185Z,16.55
2022-09-07T02:53:10.169Z,16.55
2022-09-07T02:54:10.168Z,16.55
2022-09-07T02:55:07.655Z,16.55
2022-09-07T02:56:10.172Z,16.55
2022-09-07T02:57:01.299Z,16.56
2022-09-07T02:58:08.050Z,16.56
2022-09-07T02:59:06.437Z,16.56
2022-09-07T03:00:06.215Z,16.56
2022-09-07T03:01:08.519Z,16.56
2022-09-07T03:02:03.744Z,16.61
2022-09-07T03:03:07.876Z,16.61
2022-09-07T03:04:10.188Z,16.61
2022-09-07T03:05:02.009Z,16.61
2022-09-07T03:06:03.477Z,16.61
2022-09-07T03:07:07.637Z,16.62
2022-09-07T03:08:03.179Z,16.62
2022-09-07T03:09:04.339Z,16.62
2022-09-07T03:10:02.130Z,16.62
2022-09-07T03:11:00.536Z,16.62
2022-09-07T03:12:02.841Z,16.59
2022-09-07T03:13:00.250Z,16.59
2022-09-07T03:14:10.228Z,16.59
2022-09-07T03:15:00.286Z,16.59
2022-09-07T03:16:00.452Z,16.59
2022-09-07T03:17:00.682Z,16.58
2022-09-07T03:18:00.279Z,16.58
2022-09-07T03:19:00.275Z,16.58
2022-09-07T03:20:00.278Z,16.58
2022-09-07T03:21:00.375Z,16.58
2022-09-07T03:22:00.338Z,16.55
2022-09-07T03:23:00.275Z,16.55
2022-09-07T03:24:00.611Z,16.55
2022-09-07T03:25:00.727Z,16.55
2022-09-07T03:26:00.258Z,16.55
2022-09-07T03:27:00.257Z,16.52
2022-09-07T03:28:00.263Z,16.52
2022-09-07T03:29:00.253Z,16.52
2022-09-07T03:30:00.522Z,16.52
2022-09-07T03:31:00.625Z,16.52
2022-09-07T03:32:00.299Z,16.52
2022-09-07T03:33:00.455Z,16.52
2022-09-07T03:34:00.604Z,16.52
2022-09-07T03:35:00.709Z,16.52
2022-09-07T03:36:00.621Z,16.52
2022-09-07T03:37:00.661Z,16.53
2022-09-07T03:38:00.305Z,16.53
2022-09-07T03:39:00.467Z,16.53
2022-09-07T03:40:00.377Z,16.53
2022-09-07T03:41:00.988Z,16.53
2022-09-07T03:42:00.273Z,16.55
2022-09-07T03:43:00.273Z,16.55
2022-09-07T03:44:02.921Z,16.55
2022-09-07T03:45:00.321Z,16.55
2022-09-07T03:46:01.879Z,16.55
2022-09-07T03:47:00.530Z,16.56
2022-09-07T03:48:01.556Z,16.56
2022-09-07T03:49:00.474Z,16.56
2022-09-07T03:50:00.294Z,16.56
2022-09-07T03:51:04.789Z,16.56
2022-09-07T03:52:01.144Z,16.59
2022-09-07T03:53:00.265Z,16.59
2022-09-07T03:54:00.275Z,16.59
2022-09-07T03:55:00.423Z,16.59
2022-09-07T03:56:02.222Z,16.59
2022-09-07T03:57:00.458Z,16.59
2022-09-07T03:58:00.278Z,16.59
2022-09-07T03:59:00.947Z,16.59
2022-09-07T04:00:00.474Z,16.59
2022-09-07T04:01:04.582Z,16.59
2022-09-07T04:02:00.877Z,16.61
2022-09-07T04:03:00.305Z,16.61
2022-09-07T04:04:02.381Z,16.61
2022-09-07T04:05:00.307Z,16.61
2022-09-07T04:06:00.923Z,16.61
2022-09-07T04:07:00.268Z,16.62
2022-09-07T04:08:00.458Z,16.62
2022-09-07T04:09:01.140Z,16.62
2022-09-07T04:10:00.883Z,16.62
2022-09-07T04:11:01.160Z,16.62
2022-09-07T04:12:06.077Z,16.65
2022-09-07T04:13:00.256Z,16.65
2022-09-07T04:14:00.560Z,16.65
2022-09-07T04:15:00.262Z,16.65
2022-09-07T04:16:08.197Z,16.65
2022-09-07T04:17:00.380Z,16.61
2022-09-07T04:18:00.869Z,16.61
2022-09-07T04:19:00.331Z,16.61
2022-09-07T04:20:00.313Z,16.61
2022-09-07T04:21:00.269Z,16.61
2022-09-07T04:22:00.266Z,16.62
2022-09-07T04:23:00.258Z,16.62
2022-09-07T04:24:00.314Z,16.62
2022-09-07T04:25:00.279Z,16.62
2022-09-07T04:26:00.437Z,16.62
2022-09-07T04:27:00.287Z,16.55
2022-09-07T04:28:00.411Z,16.55
2022-09-07T04:29:00.381Z,16.55
2022-09-07T04:30:00.270Z,16.55
2022-09-07T04:31:00.828Z,16.55
2022-09-07T04:32:00.386Z,16.53
2022-09-07T04:33:00.271Z,16.53
2022-09-07T04:34:00.990Z,16.53
2022-09-07T04:35:00.280Z,16.53
2022-09-07T04:36:00.748Z,16.53
2022-09-07T04:37:00.263Z,16.49
2022-09-07T04:38:00.275Z,16.49
2022-09-07T04:39:01.484Z,16.49
2022-09-07T04:40:00.394Z,16.49
2022-09-07T04:41:02.563Z,16.49
2022-09-07T04:42:00.274Z,16.47
2022-09-07T04:43:00.278Z,16.47
2022-09-07T04:44:01.380Z,16.47
2022-09-07T04:45:00.297Z,16.47
2022-09-07T04:46:02.281Z,16.47
2022-09-07T04:47:00.264Z,16.49
2022-09-07T04:48:00.318Z,16.49
2022-09-07T04:49:01.923Z,16.49
2022-09-07T04:50:00.301Z,16.49
2022-09-07T04:51:05.899Z,16.49
2022-09-07T04:52:00.383Z,16.47
2022-09-07T04:53:00.267Z,16.47
2022-09-07T04:54:00.926Z,16.47
2022-09-07T04:55:00.270Z,16.47
2022-09-07T04:56:00.816Z,16.47
2022-09-07T04:57:00.278Z,16.38
2022-09-07T04:58:00.267Z,16.38
2022-09-07T04:59:00.683Z,16.38
2022-09-07T05:00:00.409Z,16.38
2022-09-07T05:01:00.783Z,16.38
2022-09-07T05:02:00.306Z,16.37
2022-09-07T05:03:00.266Z,16.37
2022-09-07T05:04:00.785Z,16.37
2022-09-07T05:05:02.805Z,16.37
2022-09-07T05:06:00.707Z,16.37
2022-09-07T05:07:00.327Z,16.35
2022-09-07T05:08:00.364Z,16.35
2022-09-07T05:09:00.263Z,16.35
2022-09-07T05:10:00.263Z,16.35
2022-09-07T05:11:00.261Z,16.35
2022-09-07T05:12:00.340Z,16.32
2022-09-07T05:13:00.327Z,16.32
2022-09-07T05:14:00.921Z,16.32
2022-09-07T05:15:00.280Z,16.32
2022-09-07T05:16:06.161Z,16.32
2022-09-07T05:17:00.379Z,16.32
2022-09-07T05:18:00.268Z,16.32
2022-09-07T05:19:01.270Z,16.32
2022-09-07T05:20:00.333Z,16.32
2022-09-07T05:21:07.782Z,16.32
2022-09-07T05:22:00.582Z,16.26
2022-09-07T05:23:00.268Z,16.26
2022-09-07T05:24:00.900Z,16.26
2022-09-07T05:25:00.257Z,16.26
2022-09-07T05:26:00.265Z,16.26
2022-09-07T05:27:00.247Z,16.25
2022-09-07T05:28:00.371Z,16.25
2022-09-07T05:31:19.886Z,16.25
2022-09-07T05:32:00.321Z,16.24
2022-09-07T05:33:00.288Z,16.24
2022-09-07T05:35:00.303Z,16.24
2022-09-07T05:36:00.533Z,16.24
2022-09-07T05:37:00.637Z,16.20
2022-09-07T05:38:00.263Z,16.20
2022-09-07T05:39:00.270Z,16.20
2022-09-07T05:40:00.391Z,16.20
2022-09-07T05:41:00.268Z,16.20
2022-09-07T05:42:00.294Z,16.20
2022-09-07T05:43:00.276Z,16.20
2022-09-07T05:45:00.293Z,16.20
2022-09-07T05:46:00.367Z,16.20
2022-09-07T05:47:00.290Z,16.16
2022-09-07T05:48:00.363Z,16.16
2022-09-07T05:49:00.284Z,16.16
2022-09-07T05:50:00.251Z,16.16
2022-09-07T05:51:00.311Z,16.16
2022-09-07T05:52:00.254Z,16.15
2022-09-07T05:53:00.605Z,16.15
2022-09-07T05:54:00.260Z,16.15
2022-09-07T05:55:28.415Z,16.15
2022-09-07T05:56:05.142Z,16.15
2022-09-07T05:57:00.264Z,16.13
2022-09-07T05:58:00.257Z,16.13
2022-09-07T05:59:00.268Z,16.13
2022-09-07T06:00:00.595Z,16.13
2022-09-07T06:01:01.169Z,16.13
2022-09-07T06:02:00.481Z,16.13
2022-09-07T06:03:00.422Z,16.13
2022-09-07T06:04:00.385Z,16.13
2022-09-07T06:05:00.249Z,16.13
2022-09-07T06:06:01.291Z,16.13
2022-09-07T06:07:22.675Z,16.11
2022-09-07T06:08:00.344Z,16.11
2022-09-07T06:09:00.298Z,16.11
2022-09-07T06:11:08.399Z,16.11
2022-09-07T06:12:00.292Z,16.24
2022-09-07T06:13:00.475Z,16.24
2022-09-07T06:14:00.269Z,16.24
2022-09-07T06:15:00.426Z,16.24
2022-09-07T06:16:00.906Z,16.24
2022-09-07T06:17:00.330Z,16.36
2022-09-07T06:18:00.263Z,16.36
2022-09-07T06:19:03.802Z,16.36
2022-09-07T06:20:00.404Z,16.36
2022-09-07T06:21:02.306Z,16.36
2022-09-07T06:22:00.283Z,16.45
2022-09-07T06:23:00.256Z,16.45
2022-09-07T06:24:00.275Z,16.45
2022-09-07T06:25:00.261Z,16.45
2022-09-07T06:26:00.482Z,16.45
2022-09-07T06:27:00.299Z,16.46
2022-09-07T06:28:00.349Z,16.46
2022-09-07T06:29:00.903Z,16.46
2022-09-07T06:30:00.274Z,16.46
2022-09-07T06:31:01.151Z,16.46
2022-09-07T06:33:00.394Z,16.54
2022-09-07T06:34:00.265Z,16.54
2022-09-07T06:35:00.613Z,16.54
2022-09-07T06:36:01.973Z,16.54
2022-09-07T06:37:00.298Z,16.62
2022-09-07T06:38:00.273Z,16.62
2022-09-07T06:39:00.309Z,16.62
2022-09-07T06:40:00.432Z,16.62
2022-09-07T06:42:00.461Z,16.67
2022-09-07T06:43:00.283Z,16.67
2022-09-07T06:44:00.366Z,16.67
2022-09-07T06:45:00.289Z,16.67
2022-09-07T06:48:00.262Z,16.74
2022-09-07T06:49:00.257Z,16.74
2022-09-07T06:50:00.297Z,16.74
2022-09-07T06:51:01.282Z,16.74
2022-09-07T06:52:00.369Z,16.81
2022-09-07T06:55:00.908Z,16.81
2022-09-07T06:56:00.665Z,16.81
2022-09-07T06:57:00.274Z,16.80
2022-09-07T06:58:00.258Z,16.80
2022-09-07T06:59:00.266Z,16.80
2022-09-07T07:00:00.390Z,16.80
2022-09-07T07:01:04.690Z,16.80
2022-09-07T07:02:00.271Z,16.88
2022-09-07T07:03:00.390Z,16.88
2022-09-07T07:04:00.467Z,16.88
2022-09-07T07:05:00.316Z,16.88
2022-09-07T07:06:00.283Z,16.88
2022-09-07T07:07:00.277Z,16.94
2022-09-07T07:08:00.270Z,16.94
2022-09-07T07:09:00.531Z,16.94
2022-09-07T07:10:00.277Z,16.94
2022-09-07T07:11:01.906Z,16.94
2022-09-07T07:12:00.309Z,16.98
2022-09-07T07:13:00.270Z,16.98
2022-09-07T07:14:00.295Z,16.98
2022-09-07T07:15:00.274Z,16.98
2022-09-07T07:16:01.254Z,16.98
2022-09-07T07:17:00.299Z,17.01
2022-09-07T07:18:14.839Z,17.01
2022-09-07T07:19:00.274Z,17.01
2022-09-07T07:20:00.323Z,17.01
2022-09-07T07:21:02.293Z,17.01
2022-09-07T07:22:46.086Z,17.13
2022-09-07T07:23:00.301Z,17.13
2022-09-07T07:24:02.189Z,17.13
2022-09-07T07:25:00.336Z,17.13
2022-09-07T07:26:00.973Z,17.13
2022-09-07T07:27:00.295Z,17.22
2022-09-07T07:29:00.624Z,17.22
2022-09-07T07:30:00.468Z,17.22
2022-09-07T07:31:04.872Z,17.22
2022-09-07T07:32:00.305Z,17.30
2022-09-07T07:33:00.363Z,17.30
2022-09-07T07:34:00.474Z,17.30
2022-09-07T07:35:00.259Z,17.30
2022-09-07T07:36:10.172Z,17.30
2022-09-07T07:37:00.279Z,17.39
2022-09-07T07:39:00.993Z,17.39
2022-09-07T07:40:17.462Z,17.39
2022-09-07T07:42:03.225Z,17.43
2022-09-07T07:43:00.263Z,17.43
2022-09-07T07:44:00.759Z,17.43
2022-09-07T07:46:02.618Z,17.43
2022-09-07T07:47:00.956Z,17.52
2022-09-07T07:48:00.308Z,17.52
2022-09-07T07:49:00.271Z,17.52
2022-09-07T07:50:32.493Z,17.52
2022-09-07T07:51:04.391Z,17.52
2022-09-07T07:54:00.576Z,17.66
2022-09-07T07:55:00.432Z,17.66
2022-09-07T07:56:00.672Z,17.66
2022-09-07T07:57:00.515Z,17.75
2022-09-07T07:58:00.388Z,17.75
2022-09-07T07:59:00.296Z,17.75
2022-09-07T08:00:00.782Z,17.75
2022-09-07T08:01:01.552Z,17.75
2022-09-07T08:02:00.486Z,17.92
2022-09-07T08:03:00.530Z,17.92
2022-09-07T08:04:00.347Z,17.92
2022-09-07T08:05:00.280Z,17.92
2022-09-07T08:06:05.464Z,17.92
2022-09-07T08:07:03.436Z,18.06
2022-09-07T08:08:00.611Z,18.06
2022-09-07T08:09:00.269Z,18.06
2022-09-07T08:10:00.351Z,18.06
2022-09-07T08:11:00.978Z,18.06
2022-09-07T08:12:00.356Z,18.24
2022-09-07T08:13:00.277Z,18.24
2022-09-07T08:14:02.281Z,18.24
2022-09-07T08:15:00.371Z,18.24
2022-09-07T08:16:00.393Z,18.24
2022-09-07T08:17:00.263Z,18.24
2022-09-07T08:18:00.264Z,18.24
2022-09-07T08:19:00.277Z,18.24
2022-09-07T08:20:00.315Z,18.24
2022-09-07T08:21:01.352Z,18.24
2022-09-07T08:22:00.274Z,18.21
2022-09-07T08:23:00.256Z,18.21
2022-09-07T08:24:00.376Z,18.21
2022-09-07T08:25:00.289Z,18.21
2022-09-07T08:26:00.678Z,18.21
2022-09-07T08:27:00.388Z,18.46
2022-09-07T08:28:00.687Z,18.46
2022-09-07T08:29:00.278Z,18.46
2022-09-07T08:30:00.596Z,18.46
2022-09-07T08:31:03.369Z,18.46
2022-09-07T08:32:00.355Z,18.62
2022-09-07T08:33:00.263Z,18.62
2022-09-07T08:34:00.355Z,18.62
2022-09-07T08:35:00.400Z,18.62
2022-09-07T08:36:01.577Z,18.62
2022-09-07T08:37:00.266Z,18.61
2022-09-07T08:38:00.263Z,18.61
2022-09-07T08:39:00.429Z,18.61
2022-09-07T08:40:01.159Z,18.61
2022-09-07T08:41:01.566Z,18.61
2022-09-07T08:42:06.806Z,18.61
2022-09-07T08:43:00.251Z,18.61
2022-09-07T08:44:01.777Z,18.61
2022-09-07T08:45:10.241Z,18.61
2022-09-07T08:46:10.216Z,18.61
2022-09-07T08:47:10.214Z,18.53
2022-09-07T08:48:02.186Z,18.53
2022-09-07T08:49:01.455Z,18.53
2022-09-07T08:50:01.334Z,18.53
2022-09-07T08:51:00.249Z,18.53
2022-09-07T08:52:02.824Z,18.56
2022-09-07T08:53:00.264Z,18.56
2022-09-07T08:54:00.379Z,18.56
2022-09-07T08:55:03.323Z,18.56
2022-09-07T08:56:03.542Z,18.56
2022-09-07T08:57:22.310Z,18.52
2022-09-07T08:58:04.154Z,18.52
2022-09-07T08:59:05.569Z,18.52
2022-09-07T09:00:00.307Z,18.52
2022-09-07T09:02:30.054Z,18.64
2022-09-07T09:03:30.490Z,18.64
2022-09-07T09:04:16.956Z,18.64
2022-09-07T09:05:17.579Z,18.64
2022-09-07T09:06:07.809Z,18.64
2022-09-07T09:07:10.312Z,18.72
2022-09-07T09:08:09.385Z,18.72
2022-09-07T09:09:10.242Z,18.72
2022-09-07T09:10:01.264Z,18.72
2022-09-07T09:11:04.483Z,18.72
2022-09-07T09:12:01.295Z,18.80
2022-09-07T09:13:10.174Z,18.80
2022-09-07T09:14:08.635Z,18.80
2022-09-07T09:15:10.179Z,18.80
2022-09-07T09:16:10.411Z,18.80
2022-09-07T09:17:06.933Z,18.93
2022-09-07T09:18:00.245Z,18.93
2022-09-07T09:19:10.168Z,18.93
2022-09-07T09:20:10.204Z,18.93
2022-09-07T09:21:00.690Z,18.93
2022-09-07T09:22:08.495Z,18.97
2022-09-07T09:23:03.937Z,18.97
2022-09-07T09:24:04.605Z,18.97
2022-09-07T09:25:03.516Z,18.97
2022-09-07T09:26:04.634Z,18.97
2022-09-07T09:27:00.284Z,18.94
2022-09-07T09:28:00.358Z,18.94
2022-09-07T09:29:10.182Z,18.94
2022-09-07T09:30:00.319Z,18.94
2022-09-07T09:31:00.426Z,18.94
2022-09-07T09:32:10.184Z,19.03
2022-09-07T09:33:10.196Z,19.03
2022-09-07T09:34:07.785Z,19.03
2022-09-07T09:35:10.255Z,19.03
2022-09-07T09:36:00.867Z,19.03
2022-09-07T09:37:00.274Z,19.05
2022-09-07T09:38:00.319Z,19.05
2022-09-07T09:39:00.537Z,19.05
2022-09-07T09:40:03.074Z,19.05
2022-09-07T09:41:03.986Z,19.05
2022-09-07T09:42:10.174Z,19.16
2022-09-07T09:43:01.931Z,19.16
2022-09-07T09:44:00.383Z,19.16
2022-09-07T09:45:05.102Z,19.16
2022-09-07T09:46:14.172Z,19.16
2022-09-07T09:47:31.041Z,18.98
2022-09-07T09:48:01.550Z,18.98
2022-09-07T09:49:04.184Z,18.98
2022-09-07T09:50:03.507Z,18.98
2022-09-07T09:52:32.597Z,18.95
2022-09-07T09:53:01.086Z,18.95
2022-09-07T09:54:02.375Z,18.95
2022-09-07T09:55:23.660Z,18.95
2022-09-07T09:56:01.998Z,18.95
2022-09-07T09:57:00.262Z,19.06
2022-09-07T10:00:05.323Z,19.06
2022-09-07T10:01:25.379Z,19.06
2022-09-07T10:04:14.584Z,19.26
2022-09-07T10:05:03.769Z,19.26
2022-09-07T10:06:04.017Z,19.26
2022-09-07T10:07:05.674Z,19.39
2022-09-07T10:08:00.665Z,19.39
2022-09-07T10:09:01.178Z,19.39
2022-09-07T10:10:00.301Z,19.39
2022-09-07T10:11:08.624Z,19.39
2022-09-07T10:12:08.213Z,19.32
2022-09-07T10:13:00.393Z,19.32
2022-09-07T10:14:00.315Z,19.32
2022-09-07T10:15:01.363Z,19.32
2022-09-07T10:16:02.127Z,19.32
2022-09-07T10:17:09.034Z,19.42
2022-09-07T10:18:01.634Z,19.42
2022-09-07T10:19:00.618Z,19.42
2022-09-07T10:20:10.475Z,19.42
2022-09-07T10:21:11.477Z,19.42
2022-09-07T10:22:02.320Z,19.63
2022-09-07T10:23:01.193Z,19.63
2022-09-07T10:24:10.195Z,19.63
2022-09-07T10:25:01.124Z,19.63
2022-09-07T10:26:10.220Z,19.63
2022-09-07T10:27:00.321Z,19.70
2022-09-07T10:28:10.217Z,19.70
2022-09-07T10:29:10.638Z,19.70
2022-09-07T10:30:00.958Z,19.70
2022-09-07T10:31:02.328Z,19.70
2022-09-07T10:32:06.617Z,19.88
2022-09-07T10:33:04.126Z,19.88
2022-09-07T10:34:27.474Z,19.88
2022-09-07T10:35:10.222Z,19.88
2022-09-07T10:36:07.784Z,19.88
2022-09-07T10:37:03.329Z,20.05
2022-09-07T10:38:09.758Z,20.05
2022-09-07T10:39:03.275Z,20.05
2022-09-07T10:40:07.768Z,20.05
2022-09-07T10:41:00.306Z,20.05
2022-09-07T10:42:10.195Z,20.06
2022-09-07T10:43:23.016Z,20.06
2022-09-07T10:44:03.394Z,20.06
2022-09-07T10:45:10.227Z,20.06
2022-09-07T10:46:10.526Z,20.06
2022-09-07T10:47:04.805Z,19.96
2022-09-07T10:48:01.299Z,19.96
2022-09-07T10:49:03.551Z,19.96
2022-09-07T10:50:23.139Z,19.96
2022-09-07T10:51:13.961Z,19.96
2022-09-07T10:52:08.562Z,20.02
2022-09-07T10:53:38.994Z,20.02
2022-09-07T10:54:31.470Z,20.02
2022-09-07T10:55:08.817Z,20.02
2022-09-07T10:56:06.084Z,20.02
2022-09-07T10:57:03.573Z,20.13
2022-09-07T10:58:03.693Z,20.13
2022-09-07T10:59:10.177Z,20.13
2022-09-07T11:00:10.819Z,20.13
2022-09-07T11:01:10.223Z,20.13
2022-09-07T11:02:10.288Z,20.43
2022-09-07T11:03:26.075Z,20.43
2022-09-07T11:04:10.193Z,20.43
2022-09-07T11:05:00.266Z,20.43
2022-09-07T11:06:01.331Z,20.43
2022-09-07T11:07:14.926Z,20.65
2022-09-07T11:08:07.820Z,20.65
2022-09-07T11:09:18.469Z,20.65
2022-09-07T11:10:10.264Z,20.65
2022-09-07T11:11:07.741Z,20.65
2022-09-07T11:12:04.525Z,20.85
2022-09-07T11:13:03.457Z,20.85
2022-09-07T11:14:13.003Z,20.85
2022-09-07T11:15:03.579Z,20.85
2022-09-07T11:16:03.984Z,20.85
2022-09-07T11:17:01.721Z,20.92
2022-09-07T11:18:04.471Z,20.92
2022-09-07T11:19:36.163Z,20.92
2022-09-07T11:20:01.290Z,20.92
2022-09-07T11:21:02.053Z,20.92
2022-09-07T11:22:00.303Z,20.74
2022-09-07T11:23:00.289Z,20.74
2022-09-07T11:24:04.114Z,20.74
2022-09-07T11:25:30.870Z,20.74
2022-09-07T11:26:04.173Z,20.74
2022-09-07T11:27:05.277Z,20.59
2022-09-07T11:28:07.001Z,20.59
2022-09-07T11:29:29.860Z,20.59
2022-09-07T11:30:05.066Z,20.59
2022-09-07T11:31:03.268Z,20.59
2022-09-07T11:32:06.107Z,20.46
2022-09-07T11:33:10.064Z,20.46
2022-09-07T11:34:25.602Z,20.46
2022-09-07T11:35:04.421Z,20.46
2022-09-07T11:36:03.556Z,20.46
2022-09-07T11:37:05.290Z,20.47
2022-09-07T11:38:05.198Z,20.47
2022-09-07T11:39:04.594Z,20.47
2022-09-07T11:40:03.632Z,20.47
2022-09-07T11:41:03.548Z,20.47
2022-09-07T11:42:42.933Z,20.36
2022-09-07T11:43:04.729Z,20.36
2022-09-07T11:44:05.979Z,20.36
2022-09-07T11:45:03.343Z,20.36
2022-09-07T11:46:04.536Z,20.36
2022-09-07T11:47:03.642Z,20.30
2022-09-07T11:48:04.856Z,20.30
2022-09-07T11:49:00.456Z,20.30
2022-09-07T11:50:00.444Z,20.30
2022-09-07T11:51:04.869Z,20.30
2022-09-07T11:52:05.293Z,20.31
2022-09-07T11:53:10.246Z,20.31
2022-09-07T11:54:05.447Z,20.31
2022-09-07T11:55:03.430Z,20.31
2022-09-07T11:56:04.324Z,20.31
2022-09-07T11:57:10.269Z,20.30
2022-09-07T11:58:10.295Z,20.30
2022-09-07T11:59:07.680Z,20.30
2022-09-07T12:00:10.294Z,20.30
2022-09-07T12:01:07.705Z,20.30
2022-09-07T12:02:10.255Z,20.53
2022-09-07T12:03:01.057Z,20.53
2022-09-07T12:04:14.641Z,20.53
2022-09-07T12:05:10.245Z,20.53
2022-09-07T12:06:07.760Z,20.53
2022-09-07T12:07:00.289Z,20.63
2022-09-07T12:08:10.256Z,20.63
2022-09-07T12:09:08.935Z,20.63
2022-09-07T12:10:10.253Z,20.63
2022-09-07T12:11:07.127Z,20.63
2022-09-07T12:12:10.250Z,20.61
2022-09-07T12:13:07.725Z,20.61
2022-09-07T12:14:10.187Z,20.61
2022-09-07T12:15:01.255Z,20.61
2022-09-07T12:16:10.220Z,20.61
2022-09-07T12:17:10.170Z,20.61
2022-09-07T12:18:10.185Z,20.61
2022-09-07T12:19:00.299Z,20.61
2022-09-07T12:20:10.203Z,20.61
2022-09-07T12:21:00.332Z,20.61
2022-09-07T12:22:00.371Z,20.63
2022-09-07T12:23:04.541Z,20.63
2022-09-07T12:24:00.330Z,20.63
2022-09-07T12:25:07.194Z,20.63
2022-09-07T12:26:10.175Z,20.63
2022-09-07T12:27:00.973Z,20.69
2022-09-07T12:28:00.708Z,20.69
2022-09-07T12:29:00.252Z,20.69
2022-09-07T12:30:00.283Z,20.69
2022-09-07T12:31:01.299Z,20.69
2022-09-07T12:32:52.657Z,20.70
2022-09-07T12:33:01.442Z,20.70
2022-09-07T12:34:10.184Z,20.70
2022-09-07T12:35:00.311Z,20.70
2022-09-07T12:36:00.440Z,20.70
2022-09-07T12:37:00.937Z,20.79
2022-09-07T12:38:01.138Z,20.79
2022-09-07T12:39:03.713Z,20.79
2022-09-07T12:40:10.228Z,20.79
2022-09-07T12:41:04.428Z,20.79
2022-09-07T12:42:32.873Z,20.86
2022-09-07T12:43:10.190Z,20.86
2022-09-07T12:44:04.661Z,20.86
2022-09-07T12:45:10.271Z,20.86
2022-09-07T12:46:00.894Z,20.86
2022-09-07T12:47:01.515Z,21.02
2022-09-07T12:48:06.193Z,21.02
2022-09-07T12:49:07.718Z,21.02
2022-09-07T12:50:05.258Z,21.02
2022-09-07T12:51:03.532Z,21.02
2022-09-07T12:52:14.935Z,21.15
2022-09-07T12:53:10.187Z,21.15
2022-09-07T12:54:01.286Z,21.15
2022-09-07T12:55:23.910Z,21.15
2022-09-07T12:56:17.790Z,21.15
2022-09-07T12:57:30.702Z,21.27
2022-09-07T12:58:00.250Z,21.27
2022-09-07T12:59:01.270Z,21.27
2022-09-07T13:00:00.337Z,21.27
2022-09-07T13:01:00.333Z,21.27
2022-09-07T13:02:10.250Z,21.29
2022-09-07T13:03:49.411Z,21.29
2022-09-07T13:04:10.368Z,21.29
2022-09-07T13:05:00.251Z,21.29
2022-09-07T13:06:10.166Z,21.29
2022-09-07T13:07:10.277Z,21.37
2022-09-07T13:08:09.381Z,21.37
2022-09-07T13:09:10.171Z,21.37
2022-09-07T13:10:01.862Z,21.37
2022-09-07T13:11:10.173Z,21.37
2022-09-07T13:12:01.481Z,21.42
2022-09-07T13:13:10.274Z,21.42
2022-09-07T13:14:04.688Z,21.42
2022-09-07T13:15:00.556Z,21.42